Time;durP1;ratioP1;P1;durP2;ratioP2;P2;SDS_P1;SDS_P2;PMS_P1;PMS_P2;Temp;Humidity;BMP_temperature;BMP_pressure;BME280_temperature;BME280_humidity;BME280_pressure;Samples;Min_cycle;Max_cycle;Signal;HPM_P1;HPM_P2
2023/05/18 00:00:11;;;;;;;1.20;0.90;;;22.30;70.00;;;;;;5073096;28;20545;-80
2023/05/18 00:02:40;;;;;;;1.30;1.00;;;22.30;69.90;;;;;;5073119;28;20439;-81
2023/05/18 00:05:09;;;;;;;1.40;1.03;;;22.30;70.10;;;;;;5073110;28;20446;-81
2023/05/18 00:07:38;;;;;;;3.00;1.10;;;22.30;70.30;;;;;;5073025;28;20445;-81
2023/05/18 00:10:05;;;;;;;1.60;1.10;;;22.30;70.30;;;;;;5072359;28;20450;-81
2023/05/18 00:12:32;;;;;;;2.13;1.00;;;22.30;70.40;;;;;;5072804;28;20453;-84
2023/05/18 00:14:59;;;;;;;1.60;1.00;;;22.30;70.00;;;;;;5072301;28;20442;-81
2023/05/18 00:17:25;;;;;;;1.10;0.83;;;22.30;70.30;;;;;;5073179;28;20808;-81
2023/05/18 00:19:52;;;;;;;2.20;1.37;;;22.20;70.10;;;;;;5072751;28;20805;-81
2023/05/18 00:22:19;;;;;;;1.57;1.00;;;22.20;70.10;;;;;;5072666;28;21019;-81
2023/05/18 00:24:47;;;;;;;2.17;1.20;;;22.30;70.20;;;;;;5072741;28;20491;-81
2023/05/18 00:27:15;;;;;;;1.87;1.30;;;22.30;70.00;;;;;;5076699;28;20938;-81
2023/05/18 00:29:42;;;;;;;1.10;0.80;;;22.30;69.90;;;;;;5076654;28;20931;-80
2023/05/18 00:32:09;;;;;;;2.37;1.00;;;22.20;70.20;;;;;;5076395;28;20451;-81
2023/05/18 00:34:36;;;;;;;1.40;1.10;;;22.20;70.30;;;;;;5076434;28;20440;-81
2023/05/18 00:37:02;;;;;;;1.83;1.20;;;22.20;70.10;;;;;;5076678;28;20551;-81
2023/05/18 00:39:29;;;;;;;1.63;1.10;;;22.20;70.00;;;;;;5076031;28;20440;-81
2023/05/18 00:41:57;;;;;;;1.30;0.93;;;22.20;70.20;;;;;;5076554;28;20844;-81
2023/05/18 00:44:24;;;;;;;1.40;1.10;;;22.20;69.80;;;;;;5076290;28;20442;-82
2023/05/18 00:46:51;;;;;;;1.10;0.93;;;22.20;69.60;;;;;;5076401;28;20446;-81
2023/05/18 00:49:18;;;;;;;1.87;1.10;;;22.20;69.80;;;;;;5076227;28;20442;-82
2023/05/18 00:51:46;;;;;;;1.47;1.10;;;22.20;69.80;;;;;;5076252;28;20447;-82
2023/05/18 00:54:13;;;;;;;1.20;0.90;;;22.20;69.80;;;;;;5076300;28;20438;-82
2023/05/18 00:56:41;;;;;;;1.37;1.00;;;22.20;70.00;;;;;;5076020;28;20458;-82
2023/05/18 00:59:10;;;;;;;1.53;1.10;;;22.20;70.10;;;;;;5076063;28;20437;-82
2023/05/18 01:01:42;;;;;;;1.20;0.90;;;22.20;70.20;;;;;;5075753;28;20485;-86
2023/05/18 01:04:12;;;;;;;1.13;0.93;;;22.20;70.20;;;;;;5075990;28;20442;-86
2023/05/18 01:06:40;;;;;;;1.30;1.10;;;22.10;70.40;;;;;;5075872;28;20445;-82
2023/05/18 01:09:10;;;;;;;1.10;0.90;;;22.10;71.40;;;;;;5075282;28;20450;-81
2023/05/18 01:11:50;;;;;;;1.20;1.07;;;22.10;70.30;;;;;;5075994;28;20443;-81
2023/05/18 01:14:22;;;;;;;1.20;0.80;;;22.10;70.60;;;;;;5075831;28;20787;-81
2023/05/18 01:16:55;;;;;;;3.50;1.10;;;22.10;70.30;;;;;;5075749;28;20439;-80
2023/05/18 01:20:00;;;;;;;1.43;1.20;;;22.10;70.50;;;;;;5075698;28;20435;-81
2023/05/18 01:22:37;;;;;;;1.10;0.90;;;22.10;70.50;;;;;;5075466;28;20483;-86
2023/05/18 01:25:13;;;;;;;1.30;0.90;;;22.10;70.60;;;;;;5075380;28;20497;-81
2023/05/18 01:27:45;;;;;;;1.50;1.00;;;22.10;70.80;;;;;;5075474;28;20450;-81
2023/05/18 01:30:13;;;;;;;1.70;1.20;;;22.10;70.90;;;;;;5075182;28;21055;-82
2023/05/18 01:32:41;;;;;;;1.77;1.30;;;22.10;70.90;;;;;;5075468;28;20443;-82
2023/05/18 01:35:08;;;;;;;1.90;1.37;;;22.10;71.00;;;;;;5075402;28;20533;-82
2023/05/18 01:37:35;;;;;;;1.10;1.00;;;22.10;70.60;;;;;;5074078;28;20443;-82
2023/05/18 01:40:04;;;;;;;2.13;0.97;;;22.10;70.70;;;;;;5074967;28;20932;-81
2023/05/18 01:42:34;;;;;;;1.50;1.10;;;22.10;71.20;;;;;;5075316;28;20482;-81
2023/05/18 01:45:09;;;;;;;1.83;1.30;;;22.10;70.90;;;;;;5075189;28;20444;-81
2023/05/18 01:47:40;;;;;;;1.37;0.90;;;22.10;70.50;;;;;;5075284;28;20440;-81
2023/05/18 01:50:13;;;;;;;1.37;0.93;;;22.10;71.00;;;;;;5075170;28;20495;-81
2023/05/18 01:52:57;;;;;;;1.33;1.23;;;22.10;70.70;;;;;;5075066;28;20449;-81
2023/05/18 01:55:29;;;;;;;1.60;1.00;;;22.10;71.10;;;;;;5074974;28;20459;-80
2023/05/18 01:57:57;;;;;;;1.40;1.07;;;22.00;70.90;;;;;;5074841;28;20453;-80
2023/05/18 02:00:26;;;;;;;1.67;0.90;;;22.10;70.70;;;;;;5074931;28;20438;-81
2023/05/18 02:02:52;;;;;;;1.30;0.80;;;22.00;70.70;;;;;;5074594;28;20494;-81
2023/05/18 02:05:19;;;;;;;1.50;1.00;;;22.00;70.60;;;;;;5075035;28;20438;-81
2023/05/18 02:07:47;;;;;;;1.30;1.00;;;22.00;70.30;;;;;;5074410;28;20449;-81
2023/05/18 02:10:14;;;;;;;1.57;1.00;;;22.00;70.20;;;;;;5074615;28;20987;-87
2023/05/18 02:12:41;;;;;;;1.70;1.00;;;22.00;69.90;;;;;;5074860;28;20524;-82
2023/05/18 02:15:09;;;;;;;1.67;1.00;;;22.00;70.30;;;;;;5074748;28;20451;-81
2023/05/18 02:17:37;;;;;;;1.40;0.90;;;22.00;70.00;;;;;;5074716;28;20514;-82
2023/05/18 02:20:06;;;;;;;1.17;0.93;;;22.20;70.50;;;;;;5074182;28;20473;-81
2023/05/18 02:22:33;;;;;;;1.63;1.00;;;22.00;70.00;;;;;;5074669;28;20538;-81
2023/05/18 02:25:00;;;;;;;1.50;1.20;;;22.00;70.00;;;;;;5073990;28;20474;-80
2023/05/18 02:27:27;;;;;;;1.37;1.07;;;22.00;70.00;;;;;;5074466;28;20536;-81
2023/05/18 02:29:54;;;;;;;1.47;0.80;;;22.00;70.30;;;;;;5074628;28;20445;-81
2023/05/18 02:32:22;;;;;;;1.27;1.10;;;22.00;70.20;;;;;;5074402;28;20803;-81
2023/05/18 02:34:53;;;;;;;1.20;1.10;;;22.00;70.00;;;;;;5074327;28;20442;-82
2023/05/18 02:37:21;;;;;;;1.00;0.70;;;22.10;70.40;;;;;;5073896;28;20445;-81
2023/05/18 02:39:48;;;;;;;1.60;1.13;;;22.00;69.80;;;;;;5092606;28;20442;-81
2023/05/18 02:42:15;;;;;;;1.10;1.00;;;22.00;70.40;;;;;;5094307;28;20493;-81
2023/05/18 02:44:42;;;;;;;1.23;0.80;;;22.00;70.10;;;;;;5094337;28;20445;-81
2023/05/18 02:47:09;;;;;;;2.03;0.90;;;21.90;70.30;;;;;;5094639;28;20495;-81
2023/05/18 02:49:36;;;;;;;1.10;0.90;;;22.00;70.40;;;;;;5093522;28;20444;-82
2023/05/18 02:52:04;;;;;;;1.40;1.00;;;21.90;70.10;;;;;;5094218;28;20520;-81
2023/05/18 02:54:31;;;;;;;1.50;1.00;;;22.00;70.50;;;;;;5094246;28;20437;-81
2023/05/18 02:56:58;;;;;;;1.70;1.20;;;22.00;70.20;;;;;;5092118;28;20848;-81
2023/05/18 02:59:25;;;;;;;1.10;0.80;;;21.90;69.80;;;;;;5073863;28;20447;-81
2023/05/18 03:01:52;;;;;;;1.37;1.00;;;21.90;70.00;;;;;;5073660;28;20833;-81
2023/05/18 03:04:18;;;;;;;1.20;0.97;;;21.90;70.10;;;;;;5073661;28;20449;-81
2023/05/18 03:06:46;;;;;;;1.40;1.00;;;21.90;70.30;;;;;;5073744;28;20439;-82
2023/05/18 03:09:14;;;;;;;1.50;0.90;;;21.90;70.10;;;;;;5082552;28;20835;-82
2023/05/18 03:11:41;;;;;;;2.17;1.07;;;21.90;70.20;;;;;;5094089;28;20447;-81
2023/05/18 03:14:08;;;;;;;2.10;0.90;;;21.90;70.30;;;;;;5093889;28;20430;-86
2023/05/18 03:16:37;;;;;;;1.50;0.90;;;21.90;70.20;;;;;;5093701;28;20433;-81
2023/05/18 03:19:04;;;;;;;1.20;0.80;;;21.90;70.50;;;;;;5073509;28;20449;-82
2023/05/18 03:21:34;;;;;;;1.20;0.93;;;21.90;70.30;;;;;;5073427;28;20454;-82
2023/05/18 03:24:01;;;;;;;1.40;1.10;;;21.90;70.10;;;;;;5073178;28;20569;-81
2023/05/18 03:26:30;;;;;;;1.07;0.90;;;21.90;70.10;;;;;;5073307;28;20469;-81
2023/05/18 03:28:57;;;;;;;1.10;0.90;;;21.90;70.00;;;;;;5073344;28;20441;-85
2023/05/18 03:31:25;;;;;;;1.80;1.00;;;21.90;69.90;;;;;;5073292;28;20436;-85
2023/05/18 03:33:51;;;;;;;1.60;0.83;;;21.80;70.30;;;;;;5073347;28;20449;-80
2023/05/18 03:36:21;;;;;;;1.70;1.17;;;21.80;70.20;;;;;;5073211;28;20433;-81
2023/05/18 03:38:48;;;;;;;1.50;1.10;;;21.90;70.30;;;;;;5073228;28;20433;-82
2023/05/18 03:41:14;;;;;;;1.40;1.00;;;22.00;70.60;;;;;;5073363;28;20448;-82
2023/05/18 03:43:43;;;;;;;1.43;1.00;;;21.80;70.30;;;;;;5090292;28;20479;-81
2023/05/18 03:46:09;;;;;;;1.20;0.90;;;21.90;70.10;;;;;;5093246;28;20436;-81
2023/05/18 03:48:36;;;;;;;1.63;1.00;;;21.80;70.50;;;;;;5093347;28;20437;-81
2023/05/18 03:51:04;;;;;;;1.30;0.90;;;21.80;70.30;;;;;;5093341;28;20436;-80
2023/05/18 03:53:32;;;;;;;1.57;1.00;;;21.80;70.40;;;;;;5093308;28;20443;-81
2023/05/18 03:55:59;;;;;;;1.17;0.80;;;21.80;70.30;;;;;;5093086;28;20480;-80
2023/05/18 03:58:26;;;;;;;1.57;0.83;;;21.80;70.10;;;;;;5090537;28;20947;-81
2023/05/18 04:00:55;;;;;;;1.20;0.90;;;21.80;70.00;;;;;;5075110;28;20429;-80
2023/05/18 04:03:23;;;;;;;1.33;1.00;;;21.80;70.00;;;;;;5090756;28;21018;-80
2023/05/18 04:05:52;;;;;;;1.30;0.90;;;21.80;70.00;;;;;;5097395;28;20803;-81
2023/05/18 04:08:19;;;;;;;1.30;0.80;;;21.80;69.70;;;;;;5097499;28;20452;-81
2023/05/18 04:10:46;;;;;;;1.57;0.83;;;21.80;69.80;;;;;;5097529;28;20449;-82
2023/05/18 04:13:14;;;;;;;1.30;1.00;;;21.80;69.80;;;;;;5097263;28;20449;-81
2023/05/18 04:15:41;;;;;;;1.37;1.00;;;21.80;69.70;;;;;;5097062;28;20437;-81
2023/05/18 04:18:11;;;;;;;1.20;0.97;;;21.80;69.70;;;;;;5097037;28;20443;-81
2023/05/18 04:20:38;;;;;;;1.30;0.90;;;21.80;69.50;;;;;;5097316;28;20525;-81
2023/05/18 04:23:08;;;;;;;1.20;0.80;;;21.80;69.80;;;;;;5097062;28;20825;-81
2023/05/18 04:25:35;;;;;;;1.60;1.40;;;21.80;70.70;;;;;;5096796;28;20538;-81
2023/05/18 04:28:02;;;;;;;1.10;0.77;;;21.80;70.00;;;;;;5096205;28;20437;-81
2023/05/18 04:30:29;;;;;;;2.00;1.10;;;21.80;69.80;;;;;;5097425;28;20439;-84
2023/05/18 04:32:58;;;;;;;1.30;0.90;;;21.80;69.90;;;;;;5096995;28;20451;-81
2023/05/18 04:35:27;;;;;;;1.10;0.90;;;21.80;69.80;;;;;;5097188;28;20459;-81
2023/05/18 04:37:55;;;;;;;1.10;0.90;;;21.80;69.60;;;;;;5096703;28;20779;-80
2023/05/18 04:40:22;;;;;;;1.00;0.73;;;21.80;70.00;;;;;;5096265;28;20535;-81
2023/05/18 04:42:48;;;;;;;1.13;0.80;;;21.80;69.80;;;;;;5078569;28;20982;-81
2023/05/18 04:45:18;;;;;;;2.13;1.40;;;21.80;70.10;;;;;;5096795;28;20436;-81
2023/05/18 04:47:45;;;;;;;1.87;1.00;;;21.80;70.20;;;;;;5096613;28;20439;-81
2023/05/18 04:50:14;;;;;;;1.53;0.90;;;21.80;70.30;;;;;;5077998;28;20498;-80
2023/05/18 04:52:46;;;;;;;1.30;1.10;;;21.80;70.30;;;;;;5076502;28;20483;-81
2023/05/18 04:55:15;;;;;;;1.37;1.00;;;21.80;70.90;;;;;;5076281;28;20457;-81
2023/05/18 04:57:43;;;;;;;1.10;1.00;;;21.80;69.80;;;;;;5058405;28;20426;-81
2023/05/18 05:00:11;;;;;;;1.20;0.90;;;21.70;69.70;;;;;;5076372;28;20441;-87
2023/05/18 05:02:38;;;;;;;1.83;0.90;;;21.80;70.00;;;;;;5076326;28;20499;-82
2023/05/18 05:05:06;;;;;;;1.30;0.87;;;21.80;70.20;;;;;;5058167;28;20441;-82
2023/05/18 05:07:33;;;;;;;1.53;1.00;;;21.80;70.20;;;;;;5076134;28;20444;-82
2023/05/18 05:10:02;;;;;;;1.23;0.93;;;21.90;70.10;;;;;;5058537;28;20438;-82
2023/05/18 05:12:29;;;;;;;1.00;0.70;;;21.80;70.30;;;;;;5075697;28;20516;-82
2023/05/18 05:14:56;;;;;;;1.47;1.10;;;21.80;70.30;;;;;;5076046;28;20431;-87
2023/05/18 05:17:26;;;;;;;1.30;0.90;;;21.80;70.10;;;;;;5076029;28;20429;-86
2023/05/18 05:19:53;;;;;;;1.33;1.00;;;21.80;69.90;;;;;;5075576;28;20433;-82
2023/05/18 05:22:20;;;;;;;1.27;1.00;;;21.80;70.40;;;;;;5075781;28;20972;-82
2023/05/18 05:24:47;;;;;;;1.37;1.07;;;21.80;70.40;;;;;;5075450;28;20961;-82
2023/05/18 05:27:15;;;;;;;1.30;1.13;;;21.80;70.70;;;;;;5075297;28;20452;-85
2023/05/18 05:29:42;;;;;;;2.13;1.03;;;21.80;70.70;;;;;;5074649;28;20444;-81
2023/05/18 05:32:11;;;;;;;1.77;1.50;;;21.80;70.20;;;;;;5073885;28;20441;-82
2023/05/18 05:34:37;;;;;;;3.13;1.47;;;21.80;70.50;;;;;;5073854;28;20449;-80
2023/05/18 05:37:05;;;;;;;1.70;1.10;;;21.80;70.70;;;;;;5074221;28;20441;-80
2023/05/18 05:39:32;;;;;;;1.10;0.80;;;21.80;70.70;;;;;;5075514;28;20442;-80
2023/05/18 05:41:58;;;;;;;1.53;1.00;;;21.80;70.60;;;;;;5074486;28;20442;-81
2023/05/18 05:44:26;;;;;;;1.63;1.17;;;21.80;71.10;;;;;;5074409;28;20993;-81
2023/05/18 05:46:53;;;;;;;2.27;1.10;;;21.80;70.00;;;;;;5073091;28;20445;-80
2023/05/18 05:49:20;;;;;;;3.57;1.00;;;21.80;70.20;;;;;;5072812;28;20690;-79
2023/05/18 05:51:47;;;;;;;1.40;1.10;;;21.80;70.50;;;;;;5072949;28;20446;-80
2023/05/18 05:54:15;;;;;;;2.93;1.10;;;21.80;70.10;;;;;;5072950;28;20474;-80
2023/05/18 05:56:42;;;;;;;1.60;1.20;;;21.80;70.20;;;;;;5072762;28;20445;-80
2023/05/18 05:59:09;;;;;;;4.50;1.40;;;21.80;70.20;;;;;;5073219;28;20438;-81
2023/05/18 06:01:37;;;;;;;1.20;1.00;;;21.80;70.40;;;;;;5073929;28;20451;-80
2023/05/18 06:04:09;;;;;;;1.60;1.40;;;21.80;70.40;;;;;;5091453;28;20482;-80
2023/05/18 06:06:36;;;;;;;1.90;1.10;;;21.80;70.40;;;;;;5094740;28;20449;-80
2023/05/18 06:09:04;;;;;;;1.30;1.00;;;21.80;70.40;;;;;;5094985;28;20452;-80
2023/05/18 06:11:31;;;;;;;5.50;2.63;;;21.80;70.30;;;;;;5094758;28;20435;-80
2023/05/18 06:13:58;;;;;;;3.87;2.23;;;21.80;68.00;;;;;;5093081;28;20443;-81
2023/05/18 06:16:26;;;;;;;8.93;2.90;;;21.70;61.00;;;;;;5094738;28;20501;-80
2023/05/18 06:18:54;;;;;;;3.37;2.60;;;21.50;59.30;;;;;;5094609;28;20444;-80
2023/05/18 06:21:21;;;;;;;5.17;2.07;;;21.50;60.00;;;;;;5094768;28;20487;-81
2023/05/18 06:23:48;;;;;;;3.60;2.50;;;21.50;62.90;;;;;;5093667;28;20500;-81
2023/05/18 06:26:15;;;;;;;5.00;1.70;;;21.50;65.20;;;;;;5092990;28;20448;-80
2023/05/18 06:28:42;;;;;;;6.90;2.13;;;21.50;66.90;;;;;;5090385;28;20502;-80
2023/05/18 06:31:09;;;;;;;10.03;2.07;;;21.60;67.00;;;;;;5093133;28;20491;-79
2023/05/18 06:33:37;;;;;;;3.80;2.50;;;21.60;67.50;;;;;;5094529;28;20437;-79
2023/05/18 06:36:05;;;;;;;7.13;1.97;;;21.60;68.00;;;;;;5094358;28;20536;-80
2023/05/18 06:38:32;;;;;;;4.80;1.77;;;21.60;68.50;;;;;;5094516;28;20448;-80
2023/05/18 06:40:59;;;;;;;5.90;1.83;;;21.60;68.00;;;;;;5094231;28;20774;-79
2023/05/18 06:43:27;;;;;;;5.37;1.57;;;21.60;68.10;;;;;;5094297;28;20529;-80
2023/05/18 06:45:54;;;;;;;3.30;1.63;;;21.70;68.80;;;;;;5092602;28;20445;-80
2023/05/18 06:48:25;;;;;;;2.50;1.80;;;21.90;68.80;;;;;;5088748;28;20445;-79
2023/05/18 06:50:52;;;;;;;3.93;1.77;;;21.70;68.00;;;;;;5073977;28;20442;-79
2023/05/18 06:53:21;;;;;;;4.03;1.87;;;21.70;68.40;;;;;;5073755;28;20449;-79
2023/05/18 06:55:48;;;;;;;6.30;2.33;;;21.80;68.60;;;;;;5073515;28;20446;-81
2023/05/18 06:58:15;;;;;;;8.10;2.30;;;21.80;66.50;;;;;;5073687;28;20957;-82
2023/05/18 07:00:41;;;;;;;4.73;2.70;;;21.80;63.90;;;;;;5085637;28;20450;-81
2023/05/18 07:03:08;;;;;;;8.90;2.17;;;21.70;65.50;;;;;;5087175;28;20498;-79
2023/05/18 07:05:35;;;;;;;2.60;1.53;;;21.80;67.30;;;;;;5072724;28;20536;-80
2023/05/18 07:08:03;;;;;;;4.67;1.83;;;21.80;67.30;;;;;;5071892;28;20446;-79
2023/05/18 07:10:31;;;;;;;2.63;1.50;;;21.80;68.60;;;;;;5072431;28;21009;-79
2023/05/18 07:12:58;;;;;;;3.10;1.70;;;21.80;70.00;;;;;;5073564;28;20547;-79
2023/05/18 07:15:25;;;;;;;7.00;2.50;;;21.90;69.60;;;;;;5071129;28;20499;-79
2023/05/18 07:17:52;;;;;;;5.43;2.27;;;21.80;64.50;;;;;;5070942;28;20449;-79
2023/05/18 07:20:19;;;;;;;4.43;1.90;;;21.80;67.00;;;;;;5092709;28;20477;-80
2023/05/18 07:22:46;;;;;;;2.10;1.70;;;21.90;68.50;;;;;;5089806;28;20446;-82
2023/05/18 07:25:13;;;;;;;2.47;2.03;;;21.90;69.00;;;;;;5077940;28;20991;-83
2023/05/18 07:27:41;;;;;;;3.67;1.57;;;21.90;68.70;;;;;;5077171;28;20446;-82
2023/05/18 07:30:09;;;;;;;3.50;2.10;;;21.90;70.00;;;;;;5089326;28;20983;-83
2023/05/18 07:32:37;;;;;;;4.90;1.73;;;21.90;69.80;;;;;;5098240;28;20840;-82
2023/05/18 07:35:05;;;;;;;3.30;2.00;;;21.90;69.30;;;;;;5085935;28;20525;-82
2023/05/18 07:37:32;;;;;;;3.77;1.80;;;21.90;69.50;;;;;;5078819;28;20478;-82
2023/05/18 07:39:59;;;;;;;6.03;1.90;;;22.00;69.30;;;;;;5078819;28;20446;-83
2023/05/18 07:42:25;;;;;;;2.00;1.77;;;22.00;68.90;;;;;;5079164;28;20447;-83
2023/05/18 07:44:55;;;;;;;2.37;1.67;;;22.00;69.40;;;;;;5078995;28;20569;-83
2023/05/18 07:47:22;;;;;;;4.07;1.73;;;22.00;69.60;;;;;;5086742;28;20448;-81
2023/05/18 07:49:49;;;;;;;4.07;1.80;;;22.00;69.00;;;;;;5078027;28;20474;-81
2023/05/18 07:52:16;;;;;;;2.70;1.47;;;22.00;68.50;;;;;;5073132;28;20528;-79
2023/05/18 07:54:43;;;;;;;5.17;2.13;;;22.00;68.70;;;;;;5074109;28;20467;-83
2023/05/18 07:57:10;;;;;;;3.63;1.47;;;22.10;68.50;;;;;;5076928;28;20468;-82
2023/05/18 07:59:37;;;;;;;2.80;1.50;;;22.10;69.30;;;;;;5076853;28;20428;-79
2023/05/18 08:02:06;;;;;;;6.40;1.67;;;22.10;68.90;;;;;;5093684;28;20512;-82
2023/05/18 08:04:33;;;;;;;2.60;1.60;;;22.10;69.10;;;;;;5079339;28;20480;-81
2023/05/18 08:07:00;;;;;;;2.43;1.47;;;22.10;68.70;;;;;;5076991;28;20507;-82
2023/05/18 08:09:27;;;;;;;2.57;1.73;;;22.10;69.10;;;;;;5088722;28;20443;-83
2023/05/18 08:11:55;;;;;;;5.23;1.77;;;22.10;68.70;;;;;;5090227;28;20526;-78
2023/05/18 08:14:22;;;;;;;4.87;2.30;;;22.10;68.90;;;;;;5073889;28;20443;-79
2023/05/18 08:16:49;;;;;;;4.00;1.80;;;22.20;65.40;;;;;;5073447;28;20450;-80
2023/05/18 08:19:18;;;;;;;3.00;1.87;;;22.10;67.30;;;;;;5074707;28;20446;-80
2023/05/18 08:21:45;;;;;;;3.20;1.70;;;22.10;68.40;;;;;;5073444;28;20480;-79
2023/05/18 08:24:12;;;;;;;4.40;2.30;;;22.10;68.80;;;;;;5073058;28;20491;-80
2023/05/18 08:26:39;;;;;;;2.13;1.53;;;22.10;69.00;;;;;;5073549;28;20536;-80
2023/05/18 08:29:08;;;;;;;2.50;1.60;;;22.20;69.30;;;;;;5073313;28;20494;-78
2023/05/18 08:31:36;;;;;;;5.90;1.80;;;22.20;69.10;;;;;;5073436;28;20461;-77
2023/05/18 08:34:03;;;;;;;2.50;1.23;;;22.20;69.50;;;;;;5073462;28;20437;-79
2023/05/18 08:36:34;;;;;;;1.87;1.67;;;22.30;69.50;;;;;;5072760;28;20437;-80
2023/05/18 08:39:01;;;;;;;2.00;1.33;;;22.30;69.30;;;;;;5073198;28;20945;-80
2023/05/18 08:41:30;;;;;;;5.40;1.77;;;22.30;69.70;;;;;;5073786;28;20432;-84
2023/05/18 08:44:01;;;;;;;2.33;1.33;;;22.30;69.50;;;;;;5073173;28;20489;-80
2023/05/18 08:46:34;;;;;;;6.23;1.70;;;22.30;69.50;;;;;;5074123;28;20449;-80
2023/05/18 08:49:02;;;;;;;2.80;1.53;;;22.40;69.70;;;;;;5081026;28;20452;-80
2023/05/18 08:51:31;;;;;;;4.90;1.97;;;22.40;69.10;;;;;;5096575;28;20450;-80
2023/05/18 08:54:01;;;;;;;7.77;2.00;;;22.40;70.20;;;;;;5094935;28;20468;-79
2023/05/18 08:56:32;;;;;;;1.90;1.20;;;22.50;70.50;;;;;;5076104;28;20461;-79
2023/05/18 08:58:59;;;;;;;2.90;1.37;;;22.50;69.80;;;;;;5084222;28;20451;-80
2023/05/18 09:01:27;;;;;;;3.03;1.40;;;22.50;69.90;;;;;;5096349;28;20515;-80
2023/05/18 09:03:55;;;;;;;2.20;1.53;;;22.50;70.40;;;;;;5095056;28;20497;-81
2023/05/18 09:06:25;;;;;;;2.10;1.50;;;22.60;70.80;;;;;;5076034;28;20439;-83
2023/05/18 09:08:53;;;;;;;7.33;1.77;;;22.60;70.90;;;;;;5075911;28;20448;-82
2023/05/18 09:11:22;;;;;;;6.00;1.50;;;22.50;70.50;;;;;;5075654;28;20442;-82
2023/05/18 09:13:50;;;;;;;4.87;2.37;;;22.50;71.10;;;;;;5075153;28;20449;-81
2023/05/18 09:16:17;;;;;;;4.87;1.83;;;22.50;70.60;;;;;;5075873;28;20498;-82
2023/05/18 09:18:44;;;;;;;7.27;1.87;;;22.50;70.70;;;;;;5077204;28;20509;-82
2023/05/18 09:21:11;;;;;;;4.03;1.80;;;22.50;71.10;;;;;;5091223;28;20443;-82
2023/05/18 09:23:39;;;;;;;5.93;1.80;;;22.40;71.00;;;;;;5095604;28;20568;-83
2023/05/18 09:26:08;;;;;;;6.77;1.90;;;22.40;70.50;;;;;;5088012;28;20531;-83
2023/05/18 09:28:38;;;;;;;3.37;1.93;;;22.40;70.90;;;;;;5075576;28;20530;-79
2023/05/18 09:31:07;;;;;;;5.63;1.70;;;22.40;71.50;;;;;;5075609;28;20438;-79
2023/05/18 09:33:36;;;;;;;2.40;1.60;;;22.40;69.10;;;;;;5076435;28;20481;-80
2023/05/18 09:36:04;;;;;;;2.93;1.60;;;22.50;69.10;;;;;;5076416;28;20495;-80
2023/05/18 09:38:31;;;;;;;2.47;1.60;;;22.40;69.90;;;;;;5075150;28;20448;-87
2023/05/18 09:40:59;;;;;;;3.90;1.50;;;22.40;69.40;;;;;;5095832;28;20448;-85
2023/05/18 09:43:26;;;;;;;3.80;1.77;;;22.40;68.90;;;;;;5095558;28;20449;-81
2023/05/18 09:45:54;;;;;;;5.50;1.87;;;22.40;68.20;;;;;;5095703;28;20434;-80
2023/05/18 09:48:21;;;;;;;3.70;1.40;;;22.50;69.00;;;;;;5095458;28;20442;-81
2023/05/18 09:50:50;;;;;;;2.43;1.77;;;22.50;69.20;;;;;;5095428;28;20484;-80
2023/05/18 09:53:16;;;;;;;3.87;1.67;;;22.50;68.80;;;;;;5095378;28;20991;-80
2023/05/18 09:55:47;;;;;;;3.73;1.60;;;22.50;69.30;;;;;;5095099;28;20533;-80
2023/05/18 09:58:15;;;;;;;3.60;1.83;;;22.50;69.20;;;;;;5094174;28;20451;-84
2023/05/18 10:00:42;;;;;;;4.93;1.93;;;22.60;69.00;;;;;;5095262;28;20436;-83
2023/05/18 10:03:21;;;;;;;3.33;1.53;;;22.60;68.50;;;;;;5095111;28;20445;-81
2023/05/18 10:05:49;;;;;;;2.03;1.47;;;22.60;69.60;;;;;;5094824;28;20495;-81
2023/05/18 10:08:16;;;;;;;3.43;1.67;;;22.80;70.00;;;;;;5095108;28;20442;-81
2023/05/18 10:10:46;;;;;;;5.07;1.53;;;22.70;69.80;;;;;;5094994;28;20507;-81
2023/05/18 10:13:18;;;;;;;4.13;1.93;;;22.80;69.60;;;;;;5095163;28;20437;-81
2023/05/18 10:15:49;;;;;;;7.23;2.20;;;22.80;69.70;;;;;;5094853;28;20920;-81
2023/05/18 10:18:24;;;;;;;3.43;1.67;;;22.90;70.30;;;;;;5094818;28;20444;-81
2023/05/18 10:20:53;;;;;;;4.03;1.57;;;23.00;70.30;;;;;;5094939;28;20781;-81
2023/05/18 10:23:22;;;;;;;5.50;1.67;;;23.00;69.90;;;;;;5094660;28;20466;-80
2023/05/18 10:25:50;;;;;;;5.97;2.10;;;23.10;70.10;;;;;;5094657;28;20851;-80
2023/05/18 10:28:27;;;;;;;5.97;1.80;;;23.10;70.40;;;;;;5094640;28;20458;-80
2023/05/18 10:30:55;;;;;;;3.67;1.93;;;23.20;70.60;;;;;;5095105;28;20520;-80
2023/05/18 10:33:27;;;;;;;3.20;1.57;;;23.10;70.70;;;;;;5094626;28;20440;-81
2023/05/18 10:35:55;;;;;;;5.43;1.90;;;23.20;70.90;;;;;;5094522;28;20451;-89
2023/05/18 10:38:23;;;;;;;4.00;1.60;;;23.30;70.80;;;;;;5094426;28;20435;-81
2023/05/18 10:40:51;;;;;;;3.50;1.37;;;23.30;70.90;;;;;;5094431;28;20436;-81
2023/05/18 10:43:20;;;;;;;4.27;1.60;;;23.30;70.00;;;;;;5094336;28;20434;-81
2023/05/18 10:45:51;;;;;;;2.93;1.23;;;23.40;70.30;;;;;;5094280;28;20880;-81
2023/05/18 10:48:19;;;;;;;7.53;1.73;;;23.40;70.40;;;;;;5094430;28;20450;-81
2023/05/18 10:50:49;;;;;;;2.03;1.37;;;23.40;70.70;;;;;;5094413;28;20447;-81
2023/05/18 10:53:18;;;;;;;3.30;1.67;;;23.40;71.10;;;;;;5094535;28;20454;-84
2023/05/18 10:55:46;;;;;;;2.50;1.50;;;23.40;70.90;;;;;;5094104;28;20446;-81
2023/05/18 10:58:14;;;;;;;3.30;1.20;;;23.40;71.00;;;;;;5094115;28;20442;-80
2023/05/18 11:00:43;;;;;;;1.60;1.23;;;23.40;70.80;;;;;;5093955;28;20447;-79
2023/05/18 11:03:13;;;;;;;3.30;1.43;;;23.50;70.60;;;;;;5093881;28;20937;-79
2023/05/18 11:05:40;;;;;;;1.27;1.00;;;23.50;70.30;;;;;;5093691;28;21006;-80
2023/05/18 11:08:09;;;;;;;2.03;1.33;;;23.60;70.60;;;;;;5094124;28;20505;-80
2023/05/18 11:10:41;;;;;;;3.13;1.37;;;23.60;70.60;;;;;;5093555;28;20451;-80
2023/05/18 11:13:08;;;;;;;1.60;1.23;;;23.60;70.90;;;;;;5093763;28;20858;-80
2023/05/18 11:16:03;;;;;;;2.83;1.30;;;23.60;70.40;;;;;;5093741;28;20439;-80
2023/05/18 11:18:35;;;;;;;1.73;1.30;;;23.60;70.70;;;;;;5093940;28;20832;-79
2023/05/18 11:21:02;;;;;;;1.70;1.07;;;23.60;71.00;;;;;;5093706;28;20494;-80
2023/05/18 11:23:32;;;;;;;2.17;1.20;;;23.60;71.20;;;;;;5093237;28;20458;-80
2023/05/18 11:26:03;;;;;;;1.40;1.30;;;23.70;71.00;;;;;;5093726;28;20486;-80
2023/05/18 11:28:32;;;;;;;2.20;1.40;;;23.60;71.00;;;;;;5093611;28;20845;-80
2023/05/18 11:30:59;;;;;;;4.97;1.27;;;23.70;70.90;;;;;;5093492;28;20457;-80
2023/05/18 11:33:28;;;;;;;1.80;1.10;;;23.70;71.20;;;;;;5093608;28;20433;-80
2023/05/18 11:36:02;;;;;;;1.53;1.10;;;23.70;71.30;;;;;;5093479;28;20813;-79
2023/05/18 11:38:51;;;;;;;3.00;1.13;;;23.70;71.20;;;;;;5093500;28;20446;-80
2023/05/18 11:41:32;;;;;;;3.50;1.20;;;23.70;71.20;;;;;;5093590;28;20438;-80
2023/05/18 11:44:16;;;;;;;4.40;1.50;;;23.70;71.50;;;;;;5093309;28;20435;-80
2023/05/18 11:46:55;;;;;;;2.10;1.53;;;23.70;71.40;;;;;;5093396;28;20442;-81
2023/05/18 11:49:23;;;;;;;2.13;1.27;;;23.80;71.40;;;;;;5093335;28;20439;-81
2023/05/18 11:52:00;;;;;;;5.73;1.70;;;23.70;71.30;;;;;;5093369;28;20447;-80
2023/05/18 11:54:33;;;;;;;2.27;1.43;;;23.70;71.00;;;;;;5093434;28;20824;-80
2023/05/18 11:57:00;;;;;;;3.20;1.20;;;23.70;71.30;;;;;;5093611;28;20953;-80
2023/05/18 11:59:31;;;;;;;1.50;1.10;;;23.70;71.20;;;;;;5093232;28;20443;-80
2023/05/18 12:02:01;;;;;;;2.37;1.40;;;23.70;71.60;;;;;;5093287;28;20449;-80
2023/05/18 12:04:28;;;;;;;1.90;1.20;;;23.70;71.30;;;;;;5093019;28;20475;-80
2023/05/18 12:06:56;;;;;;;2.40;1.27;;;23.80;71.40;;;;;;5093002;28;20500;-87
2023/05/18 12:09:23;;;;;;;2.03;1.13;;;23.80;71.40;;;;;;5093120;28;20476;-80
2023/05/18 12:11:51;;;;;;;1.60;1.00;;;23.80;71.70;;;;;;5092970;28;20963;-80
2023/05/18 12:14:19;;;;;;;2.03;1.13;;;23.80;71.70;;;;;;5093127;28;20446;-80
2023/05/18 12:16:47;;;;;;;1.90;1.20;;;23.80;71.70;;;;;;5093043;28;20504;-80
2023/05/18 12:19:14;;;;;;;1.63;1.40;;;23.80;71.40;;;;;;5092810;28;20503;-80
2023/05/18 12:21:41;;;;;;;2.23;1.20;;;23.80;71.30;;;;;;5094972;28;20446;-81
2023/05/18 12:24:08;;;;;;;1.60;1.17;;;23.80;71.30;;;;;;5096804;28;20463;-87
2023/05/18 12:26:37;;;;;;;2.30;1.13;;;23.80;71.60;;;;;;5097119;28;20445;-80
2023/05/18 12:29:05;;;;;;;1.70;1.13;;;23.80;71.70;;;;;;5097127;28;20496;-80
2023/05/18 12:31:32;;;;;;;1.97;1.10;;;23.80;71.90;;;;;;5097084;28;20470;-80
2023/05/18 12:34:02;;;;;;;2.73;1.30;;;23.80;71.50;;;;;;5097108;28;20928;-79
2023/05/18 12:36:29;;;;;;;2.00;1.00;;;23.80;71.70;;;;;;5096957;28;20478;-80
2023/05/18 12:38:56;;;;;;;2.27;1.00;;;23.80;72.80;;;;;;5097048;28;20444;-80
2023/05/18 12:41:25;;;;;;;1.40;1.13;;;23.80;71.50;;;;;;5096966;28;20448;-80
2023/05/18 12:43:53;;;;;;;2.00;1.13;;;23.80;71.40;;;;;;5096604;28;20841;-81
2023/05/18 12:46:23;;;;;;;6.00;1.20;;;23.80;71.40;;;;;;5096822;28;20489;-80
2023/05/18 12:48:57;;;;;;;2.07;1.10;;;23.90;71.50;;;;;;5096710;28;20441;-80
2023/05/18 12:51:29;;;;;;;1.10;0.90;;;23.80;71.50;;;;;;5096610;28;20500;-80
2023/05/18 12:53:56;;;;;;;1.20;1.00;;;23.80;71.70;;;;;;5096509;28;20518;-87